sensor_id;sensor_type;location;lat;lon;timestamp;P1;durP1;ratioP1;P2;durP2;ratioP2
44486;SDS011;30191;50.908;6.962;2022-12-18T00:00:42;18.50;;;11.00;;
44486;SDS011;30191;50.908;6.962;2022-12-18T00:03:08;17.55;;;10.85;;
44486;SDS011;30191;50.908;6.962;2022-12-18T00:05:34;20.40;;;11.15;;
44486;SDS011;30191;50.908;6.962;2022-12-18T00:08:00;21.35;;;11.60;;
44486;SDS011;30191;50.908;6.962;2022-12-18T00:10:26;23.20;;;11.55;;
44486;SDS011;30191;50.908;6.962;2022-12-18T00:12:52;18.80;;;11.02;;
44486;SDS011;30191;50.908;6.962;2022-12-18T00:15:18;19.65;;;11.55;;
44486;SDS011;30191;50.908;6.962;2022-12-18T00:17:44;19.25;;;10.70;;
44486;SDS011;30191;50.908;6.962;2022-12-18T00:20:09;18.15;;;10.82;;
44486;SDS011;30191;50.908;6.962;2022-12-18T00:22:35;19.55;;;10.50;;
44486;SDS011;30191;50.908;6.962;2022-12-18T00:25:01;17.55;;;11.25;;
44486;SDS011;30191;50.908;6.962;2022-12-18T00:27:27;20.10;;;11.20;;
44486;SDS011;30191;50.908;6.962;2022-12-18T00:29:52;19.92;;;10.90;;
44486;SDS011;30191;50.908;6.962;2022-12-18T00:32:18;17.55;;;11.68;;
44486;SDS011;30191;50.908;6.962;2022-12-18T00:34:44;18.08;;;10.98;;
44486;SDS011;30191;50.908;6.962;2022-12-18T00:37:09;17.88;;;10.95;;
44486;SDS011;30191;50.908;6.962;2022-12-18T00:39:35;16.75;;;10.82;;
44486;SDS011;30191;50.908;6.962;2022-12-18T00:42:00;17.33;;;10.30;;
44486;SDS011;30191;50.908;6.962;2022-12-18T00:44:44;17.80;;;10.65;;
44486;SDS011;30191;50.908;6.962;2022-12-18T00:47:10;17.40;;;11.00;;
44486;SDS011;30191;50.908;6.962;2022-12-18T00:49:36;18.40;;;10.95;;
44486;SDS011;30191;50.908;6.962;2022-12-18T00:52:01;21.73;;;11.50;;
44486;SDS011;30191;50.908;6.962;2022-12-18T00:54:27;19.02;;;10.50;;
44486;SDS011;30191;50.908;6.962;2022-12-18T00:56:53;18.27;;;10.65;;
44486;SDS011;30191;50.908;6.962;2022-12-18T00:59:20;17.13;;;10.20;;
44486;SDS011;30191;50.908;6.962;2022-12-18T01:01:46;19.50;;;10.65;;
44486;SDS011;30191;50.908;6.962;2022-12-18T01:04:12;15.43;;;10.20;;
44486;SDS011;30191;50.908;6.962;2022-12-18T01:06:38;17.67;;;10.65;;
44486;SDS011;30191;50.908;6.962;2022-12-18T01:09:03;17.88;;;11.20;;
44486;SDS011;30191;50.908;6.962;2022-12-18T01:11:29;16.85;;;10.63;;
44486;SDS011;30191;50.908;6.962;2022-12-18T01:13:55;16.63;;;10.40;;
44486;SDS011;30191;50.908;6.962;2022-12-18T01:16:21;18.52;;;10.27;;
44486;SDS011;30191;50.908;6.962;2022-12-18T01:18:47;17.60;;;10.45;;
44486;SDS011;30191;50.908;6.962;2022-12-18T01:21:15;20.65;;;10.68;;
44486;SDS011;30191;50.908;6.962;2022-12-18T01:23:42;15.75;;;10.32;;
44486;SDS011;30191;50.908;6.962;2022-12-18T01:26:12;17.48;;;10.65;;
44486;SDS011;30191;50.908;6.962;2022-12-18T01:28:39;17.92;;;10.80;;
44486;SDS011;30191;50.908;6.962;2022-12-18T01:31:11;20.50;;;10.15;;
44486;SDS011;30191;50.908;6.962;2022-12-18T01:33:40;18.90;;;10.32;;
44486;SDS011;30191;50.908;6.962;2022-12-18T01:36:06;17.75;;;10.82;;
44486;SDS011;30191;50.908;6.962;2022-12-18T01:38:32;16.77;;;10.45;;
44486;SDS011;30191;50.908;6.962;2022-12-18T01:40:58;18.75;;;10.75;;
44486;SDS011;30191;50.908;6.962;2022-12-18T01:46:12;17.38;;;10.85;;
44486;SDS011;30191;50.908;6.962;2022-12-18T01:48:38;18.05;;;10.95;;
44486;SDS011;30191;50.908;6.962;2022-12-18T01:51:04;17.25;;;10.75;;
44486;SDS011;30191;50.908;6.962;2022-12-18T01:53:32;17.98;;;10.50;;
44486;SDS011;30191;50.908;6.962;2022-12-18T01:55:58;16.80;;;10.35;;
44486;SDS011;30191;50.908;6.962;2022-12-18T01:58:30;19.05;;;11.13;;
44486;SDS011;30191;50.908;6.962;2022-12-18T02:01:01;17.10;;;11.02;;
44486;SDS011;30191;50.908;6.962;2022-12-18T02:03:27;16.48;;;10.20;;
44486;SDS011;30191;50.908;6.962;2022-12-18T02:08:35;17.15;;;10.52;;
44486;SDS011;30191;50.908;6.962;2022-12-18T02:14:10;16.60;;;10.52;;
44486;SDS011;30191;50.908;6.962;2022-12-18T02:16:54;18.08;;;11.25;;
44486;SDS011;30191;50.908;6.962;2022-12-18T02:19:36;18.92;;;11.65;;
44486;SDS011;30191;50.908;6.962;2022-12-18T02:27:58;16.13;;;10.77;;
44486;SDS011;30191;50.908;6.962;2022-12-18T02:30:27;19.63;;;11.70;;
44486;SDS011;30191;50.908;6.962;2022-12-18T02:32:56;19.50;;;11.30;;
44486;SDS011;30191;50.908;6.962;2022-12-18T02:35:24;16.77;;;10.73;;
44486;SDS011;30191;50.908;6.962;2022-12-18T02:37:54;20.60;;;11.45;;
44486;SDS011;30191;50.908;6.962;2022-12-18T02:40:20;20.33;;;11.43;;
44486;SDS011;30191;50.908;6.962;2022-12-18T02:42:49;18.30;;;11.48;;
44486;SDS011;30191;50.908;6.962;2022-12-18T02:45:14;18.60;;;11.50;;
44486;SDS011;30191;50.908;6.962;2022-12-18T02:47:41;16.70;;;11.30;;
44486;SDS011;30191;50.908;6.962;2022-12-18T02:53:17;16.13;;;10.75;;
44486;SDS011;30191;50.908;6.962;2022-12-18T03:01:31;16.33;;;10.52;;
44486;SDS011;30191;50.908;6.962;2022-12-18T03:04:09;16.42;;;10.20;;
44486;SDS011;30191;50.908;6.962;2022-12-18T03:06:41;15.15;;;10.05;;
44486;SDS011;30191;50.908;6.962;2022-12-18T03:09:22;18.00;;;10.98;;
44486;SDS011;30191;50.908;6.962;2022-12-18T03:11:56;16.15;;;10.07;;
44486;SDS011;30191;50.908;6.962;2022-12-18T03:17:15;18.38;;;10.60;;
44486;SDS011;30191;50.908;6.962;2022-12-18T03:19:44;17.77;;;10.63;;
44486;SDS011;30191;50.908;6.962;2022-12-18T03:22:11;18.30;;;10.63;;
44486;SDS011;30191;50.908;6.962;2022-12-18T03:24:38;17.70;;;10.75;;
44486;SDS011;30191;50.908;6.962;2022-12-18T03:27:06;16.73;;;10.77;;
44486;SDS011;30191;50.908;6.962;2022-12-18T03:29:43;16.73;;;10.90;;
44486;SDS011;30191;50.908;6.962;2022-12-18T03:32:15;21.40;;;11.80;;
44486;SDS011;30191;50.908;6.962;2022-12-18T03:34:49;16.25;;;10.32;;
44486;SDS011;30191;50.908;6.962;2022-12-18T03:37:18;16.60;;;10.30;;
44486;SDS011;30191;50.908;6.962;2022-12-18T03:39:44;16.95;;;10.43;;
44486;SDS011;30191;50.908;6.962;2022-12-18T03:44:59;16.52;;;10.10;;
44486;SDS011;30191;50.908;6.962;2022-12-18T03:50:44;16.08;;;10.15;;
44486;SDS011;30191;50.908;6.962;2022-12-18T03:56:02;16.45;;;10.07;;
44486;SDS011;30191;50.908;6.962;2022-12-18T03:58:29;18.45;;;11.00;;
44486;SDS011;30191;50.908;6.962;2022-12-18T04:00:58;16.55;;;10.90;;
44486;SDS011;30191;50.908;6.962;2022-12-18T04:03:27;15.23;;;10.23;;
44486;SDS011;30191;50.908;6.962;2022-12-18T04:05:56;19.33;;;10.80;;
44486;SDS011;30191;50.908;6.962;2022-12-18T04:08:23;20.73;;;11.32;;
44486;SDS011;30191;50.908;6.962;2022-12-18T04:10:50;18.33;;;10.68;;
44486;SDS011;30191;50.908;6.962;2022-12-18T04:13:23;18.60;;;11.50;;
44486;SDS011;30191;50.908;6.962;2022-12-18T04:15:50;21.38;;;11.38;;
44486;SDS011;30191;50.908;6.962;2022-12-18T04:18:15;20.15;;;10.77;;
44486;SDS011;30191;50.908;6.962;2022-12-18T04:20:41;17.63;;;11.45;;
44486;SDS011;30191;50.908;6.962;2022-12-18T04:23:07;17.83;;;11.57;;
44486;SDS011;30191;50.908;6.962;2022-12-18T04:25:32;19.35;;;11.30;;
44486;SDS011;30191;50.908;6.962;2022-12-18T04:27:58;19.90;;;11.73;;
44486;SDS011;30191;50.908;6.962;2022-12-18T04:30:23;18.23;;;11.45;;
44486;SDS011;30191;50.908;6.962;2022-12-18T04:32:49;18.17;;;10.88;;
44486;SDS011;30191;50.908;6.962;2022-12-18T04:35:15;17.90;;;10.98;;
44486;SDS011;30191;50.908;6.962;2022-12-18T04:37:40;18.77;;;10.73;;
44486;SDS011;30191;50.908;6.962;2022-12-18T04:40:06;19.77;;;11.95;;
44486;SDS011;30191;50.908;6.962;2022-12-18T04:42:32;19.63;;;11.57;;
44486;SDS011;30191;50.908;6.962;2022-12-18T04:44:58;24.15;;;12.05;;
44486;SDS011;30191;50.908;6.962;2022-12-18T04:47:23;19.38;;;11.52;;
44486;SDS011;30191;50.908;6.962;2022-12-18T04:49:49;17.60;;;11.70;;
44486;SDS011;30191;50.908;6.962;2022-12-18T04:52:15;22.85;;;12.40;;
44486;SDS011;30191;50.908;6.962;2022-12-18T04:54:40;20.73;;;12.00;;
44486;SDS011;30191;50.908;6.962;2022-12-18T04:57:06;20.60;;;12.45;;
44486;SDS011;30191;50.908;6.962;2022-12-18T04:59:32;20.83;;;11.95;;
44486;SDS011;30191;50.908;6.962;2022-12-18T05:01:57;21.20;;;12.63;;
44486;SDS011;30191;50.908;6.962;2022-12-18T05:04:23;21.80;;;12.77;;
44486;SDS011;30191;50.908;6.962;2022-12-18T05:06:48;19.23;;;11.90;;
44486;SDS011;30191;50.908;6.962;2022-12-18T05:09:14;23.02;;;12.75;;
44486;SDS011;30191;50.908;6.962;2022-12-18T05:11:40;23.90;;;13.25;;
44486;SDS011;30191;50.908;6.962;2022-12-18T05:14:05;18.48;;;11.27;;
44486;SDS011;30191;50.908;6.962;2022-12-18T05:16:31;19.65;;;12.10;;
44486;SDS011;30191;50.908;6.962;2022-12-18T05:18:56;20.10;;;12.52;;
44486;SDS011;30191;50.908;6.962;2022-12-18T05:21:22;22.77;;;12.23;;
44486;SDS011;30191;50.908;6.962;2022-12-18T05:23:48;20.85;;;12.57;;
44486;SDS011;30191;50.908;6.962;2022-12-18T05:26:14;21.10;;;12.57;;
44486;SDS011;30191;50.908;6.962;2022-12-18T05:28:42;23.00;;;12.95;;
44486;SDS011;30191;50.908;6.962;2022-12-18T05:31:09;20.00;;;12.60;;
44486;SDS011;30191;50.908;6.962;2022-12-18T05:33:35;21.40;;;12.20;;
44486;SDS011;30191;50.908;6.962;2022-12-18T05:36:01;22.85;;;13.15;;
44486;SDS011;30191;50.908;6.962;2022-12-18T05:38:28;18.08;;;11.50;;
44486;SDS011;30191;50.908;6.962;2022-12-18T05:40:55;21.83;;;12.63;;
44486;SDS011;30191;50.908;6.962;2022-12-18T05:43:22;21.70;;;12.30;;
44486;SDS011;30191;50.908;6.962;2022-12-18T05:45:48;21.58;;;12.68;;
44486;SDS011;30191;50.908;6.962;2022-12-18T05:48:15;19.55;;;11.80;;
44486;SDS011;30191;50.908;6.962;2022-12-18T05:50:41;17.67;;;11.60;;
44486;SDS011;30191;50.908;6.962;2022-12-18T05:53:10;21.27;;;13.07;;
44486;SDS011;30191;50.908;6.962;2022-12-18T05:55:37;22.02;;;11.68;;
44486;SDS011;30191;50.908;6.962;2022-12-18T05:58:04;19.48;;;11.40;;
44486;SDS011;30191;50.908;6.962;2022-12-18T06:00:31;20.38;;;12.52;;
44486;SDS011;30191;50.908;6.962;2022-12-18T06:02:58;23.60;;;13.43;;
44486;SDS011;30191;50.908;6.962;2022-12-18T06:05:24;22.88;;;12.93;;
44486;SDS011;30191;50.908;6.962;2022-12-18T06:07:50;21.45;;;12.60;;
44486;SDS011;30191;50.908;6.962;2022-12-18T06:10:16;20.88;;;12.88;;
44486;SDS011;30191;50.908;6.962;2022-12-18T06:12:41;19.98;;;12.30;;
44486;SDS011;30191;50.908;6.962;2022-12-18T06:15:07;19.98;;;12.07;;
44486;SDS011;30191;50.908;6.962;2022-12-18T06:17:33;21.75;;;12.93;;
44486;SDS011;30191;50.908;6.962;2022-12-18T06:19:59;20.42;;;12.60;;
44486;SDS011;30191;50.908;6.962;2022-12-18T06:22:26;20.35;;;12.77;;
44486;SDS011;30191;50.908;6.962;2022-12-18T06:24:52;23.75;;;13.00;;
44486;SDS011;30191;50.908;6.962;2022-12-18T06:27:18;20.75;;;12.38;;
44486;SDS011;30191;50.908;6.962;2022-12-18T06:29:44;20.02;;;12.20;;
44486;SDS011;30191;50.908;6.962;2022-12-18T06:32:09;21.67;;;13.32;;
44486;SDS011;30191;50.908;6.962;2022-12-18T06:34:37;20.98;;;12.65;;
44486;SDS011;30191;50.908;6.962;2022-12-18T06:37:02;20.30;;;12.45;;
44486;SDS011;30191;50.908;6.962;2022-12-18T06:39:28;27.85;;;12.85;;
44486;SDS011;30191;50.908;6.962;2022-12-18T06:41:54;23.02;;;13.57;;
44486;SDS011;30191;50.908;6.962;2022-12-18T06:44:20;22.42;;;13.35;;
44486;SDS011;30191;50.908;6.962;2022-12-18T06:46:46;21.75;;;13.18;;
44486;SDS011;30191;50.908;6.962;2022-12-18T06:49:11;23.42;;;13.73;;
44486;SDS011;30191;50.908;6.962;2022-12-18T06:51:37;22.77;;;13.10;;
44486;SDS011;30191;50.908;6.962;2022-12-18T06:54:03;23.27;;;13.77;;
44486;SDS011;30191;50.908;6.962;2022-12-18T06:56:29;19.42;;;12.20;;
44486;SDS011;30191;50.908;6.962;2022-12-18T06:58:55;21.58;;;12.98;;
44486;SDS011;30191;50.908;6.962;2022-12-18T07:01:20;20.00;;;12.70;;
44486;SDS011;30191;50.908;6.962;2022-12-18T07:03:47;22.20;;;12.70;;
44486;SDS011;30191;50.908;6.962;2022-12-18T07:06:18;22.30;;;13.25;;
44486;SDS011;30191;50.908;6.962;2022-12-18T07:08:46;21.23;;;12.82;;
44486;SDS011;30191;50.908;6.962;2022-12-18T07:11:13;21.92;;;12.57;;
44486;SDS011;30191;50.908;6.962;2022-12-18T07:13:39;21.25;;;12.65;;
44486;SDS011;30191;50.908;6.962;2022-12-18T07:16:05;19.35;;;12.57;;
44486;SDS011;30191;50.908;6.962;2022-12-18T07:18:33;24.73;;;13.15;;
44486;SDS011;30191;50.908;6.962;2022-12-18T07:21:01;19.15;;;12.80;;
44486;SDS011;30191;50.908;6.962;2022-12-18T07:23:32;23.80;;;12.93;;
44486;SDS011;30191;50.908;6.962;2022-12-18T07:26:08;22.48;;;13.95;;
44486;SDS011;30191;50.908;6.962;2022-12-18T07:28:37;22.48;;;13.30;;
44486;SDS011;30191;50.908;6.962;2022-12-18T07:31:08;24.85;;;13.93;;
44486;SDS011;30191;50.908;6.962;2022-12-18T07:33:41;24.27;;;14.13;;
44486;SDS011;30191;50.908;6.962;2022-12-18T07:36:07;24.80;;;13.23;;
44486;SDS011;30191;50.908;6.962;2022-12-18T07:38:34;21.85;;;13.32;;
44486;SDS011;30191;50.908;6.962;2022-12-18T07:41:04;24.17;;;13.85;;
44486;SDS011;30191;50.908;6.962;2022-12-18T07:43:34;22.75;;;13.52;;
44486;SDS011;30191;50.908;6.962;2022-12-18T07:46:01;26.05;;;13.82;;
44486;SDS011;30191;50.908;6.962;2022-12-18T07:48:27;22.92;;;13.63;;
44486;SDS011;30191;50.908;6.962;2022-12-18T07:50:55;19.73;;;12.40;;
44486;SDS011;30191;50.908;6.962;2022-12-18T07:53:23;25.65;;;13.13;;
44486;SDS011;30191;50.908;6.962;2022-12-18T07:55:54;22.13;;;12.25;;
44486;SDS011;30191;50.908;6.962;2022-12-18T07:58:23;21.83;;;13.55;;
44486;SDS011;30191;50.908;6.962;2022-12-18T08:00:49;22.50;;;13.07;;
44486;SDS011;30191;50.908;6.962;2022-12-18T08:03:14;22.77;;;13.70;;
44486;SDS011;30191;50.908;6.962;2022-12-18T08:05:40;21.58;;;13.18;;
44486;SDS011;30191;50.908;6.962;2022-12-18T08:08:06;23.42;;;13.73;;
44486;SDS011;30191;50.908;6.962;2022-12-18T08:10:31;22.50;;;13.00;;
44486;SDS011;30191;50.908;6.962;2022-12-18T08:12:57;22.40;;;12.88;;
44486;SDS011;30191;50.908;6.962;2022-12-18T08:15:22;21.38;;;13.25;;
44486;SDS011;30191;50.908;6.962;2022-12-18T08:17:48;22.27;;;13.23;;
44486;SDS011;30191;50.908;6.962;2022-12-18T08:20:14;20.67;;;12.77;;
44486;SDS011;30191;50.908;6.962;2022-12-18T08:22:41;21.90;;;12.32;;
44486;SDS011;30191;50.908;6.962;2022-12-18T08:25:07;19.58;;;12.55;;
44486;SDS011;30191;50.908;6.962;2022-12-18T08:27:36;23.00;;;13.07;;
44486;SDS011;30191;50.908;6.962;2022-12-18T08:30:02;21.90;;;12.90;;
44486;SDS011;30191;50.908;6.962;2022-12-18T08:32:28;20.67;;;13.15;;
44486;SDS011;30191;50.908;6.962;2022-12-18T08:34:54;22.88;;;13.70;;
44486;SDS011;30191;50.908;6.962;2022-12-18T08:37:19;22.40;;;13.35;;
44486;SDS011;30191;50.908;6.962;2022-12-18T08:39:45;20.50;;;12.68;;
44486;SDS011;30191;50.908;6.962;2022-12-18T08:42:11;20.50;;;12.88;;
44486;SDS011;30191;50.908;6.962;2022-12-18T08:44:55;19.80;;;12.18;;
44486;SDS011;30191;50.908;6.962;2022-12-18T08:47:20;21.20;;;12.82;;
44486;SDS011;30191;50.908;6.962;2022-12-18T08:49:46;22.08;;;12.80;;
44486;SDS011;30191;50.908;6.962;2022-12-18T08:52:12;23.45;;;13.50;;
44486;SDS011;30191;50.908;6.962;2022-12-18T08:54:37;26.90;;;13.13;;
44486;SDS011;30191;50.908;6.962;2022-12-18T08:57:03;20.33;;;12.30;;
44486;SDS011;30191;50.908;6.962;2022-12-18T08:59:28;23.20;;;13.45;;
44486;SDS011;30191;50.908;6.962;2022-12-18T09:01:54;20.92;;;12.88;;
44486;SDS011;30191;50.908;6.962;2022-12-18T09:04:20;21.30;;;12.23;;
44486;SDS011;30191;50.908;6.962;2022-12-18T09:06:46;21.20;;;13.00;;
44486;SDS011;30191;50.908;6.962;2022-12-18T09:09:12;22.23;;;12.55;;
44486;SDS011;30191;50.908;6.962;2022-12-18T09:11:38;23.08;;;12.68;;
44486;SDS011;30191;50.908;6.962;2022-12-18T09:14:04;19.02;;;12.63;;
44486;SDS011;30191;50.908;6.962;2022-12-18T09:16:30;20.83;;;12.88;;
44486;SDS011;30191;50.908;6.962;2022-12-18T09:18:57;20.20;;;13.15;;
44486;SDS011;30191;50.908;6.962;2022-12-18T09:21:27;21.40;;;12.05;;
44486;SDS011;30191;50.908;6.962;2022-12-18T09:26:24;20.00;;;11.95;;
44486;SDS011;30191;50.908;6.962;2022-12-18T09:28:51;20.75;;;12.38;;
44486;SDS011;30191;50.908;6.962;2022-12-18T09:31:18;24.27;;;13.13;;
44486;SDS011;30191;50.908;6.962;2022-12-18T09:33:45;21.23;;;12.95;;
44486;SDS011;30191;50.908;6.962;2022-12-18T09:36:12;19.48;;;12.68;;
44486;SDS011;30191;50.908;6.962;2022-12-18T09:38:40;19.77;;;12.38;;
44486;SDS011;30191;50.908;6.962;2022-12-18T09:43:47;24.25;;;12.73;;
44486;SDS011;30191;50.908;6.962;2022-12-18T09:46:17;22.75;;;13.48;;
44486;SDS011;30191;50.908;6.962;2022-12-18T09:48:51;20.13;;;12.35;;
44486;SDS011;30191;50.908;6.962;2022-12-18T09:51:21;21.20;;;12.55;;
44486;SDS011;30191;50.908;6.962;2022-12-18T09:53:55;21.73;;;12.88;;
44486;SDS011;30191;50.908;6.962;2022-12-18T09:56:24;21.50;;;12.32;;
44486;SDS011;30191;50.908;6.962;2022-12-18T10:01:27;19.98;;;12.30;;
44486;SDS011;30191;50.908;6.962;2022-12-18T10:03:54;20.95;;;12.70;;
44486;SDS011;30191;50.908;6.962;2022-12-18T10:06:23;20.98;;;13.00;;
44486;SDS011;30191;50.908;6.962;2022-12-18T10:09:08;21.90;;;12.82;;
44486;SDS011;30191;50.908;6.962;2022-12-18T10:12:08;18.73;;;11.65;;
44486;SDS011;30191;50.908;6.962;2022-12-18T10:14:55;19.80;;;11.38;;
44486;SDS011;30191;50.908;6.962;2022-12-18T10:23:03;19.25;;;11.82;;
44486;SDS011;30191;50.908;6.962;2022-12-18T10:26:01;16.52;;;11.60;;
44486;SDS011;30191;50.908;6.962;2022-12-18T10:28:32;19.20;;;11.80;;
44486;SDS011;30191;50.908;6.962;2022-12-18T10:31:01;20.08;;;12.57;;
44486;SDS011;30191;50.908;6.962;2022-12-18T10:33:28;19.52;;;12.38;;
44486;SDS011;30191;50.908;6.962;2022-12-18T10:35:56;17.63;;;10.82;;
44486;SDS011;30191;50.908;6.962;2022-12-18T10:38:28;23.55;;;11.90;;
44486;SDS011;30191;50.908;6.962;2022-12-18T10:41:00;18.40;;;12.07;;
44486;SDS011;30191;50.908;6.962;2022-12-18T10:46:12;19.60;;;11.98;;
44486;SDS011;30191;50.908;6.962;2022-12-18T10:51:24;19.42;;;11.98;;
44486;SDS011;30191;50.908;6.962;2022-12-18T10:54:00;18.63;;;12.02;;
44486;SDS011;30191;50.908;6.962;2022-12-18T10:56:30;22.85;;;12.05;;
44486;SDS011;30191;50.908;6.962;2022-12-18T10:59:02;16.02;;;10.63;;
44486;SDS011;30191;50.908;6.962;2022-12-18T11:01:44;19.42;;;11.70;;
44486;SDS011;30191;50.908;6.962;2022-12-18T11:04:17;20.15;;;12.13;;
44486;SDS011;30191;50.908;6.962;2022-12-18T11:06:59;19.33;;;11.95;;
44486;SDS011;30191;50.908;6.962;2022-12-18T11:09:27;20.50;;;11.80;;
44486;SDS011;30191;50.908;6.962;2022-12-18T11:11:55;22.55;;;12.43;;
44486;SDS011;30191;50.908;6.962;2022-12-18T11:14:25;22.10;;;12.25;;
44486;SDS011;30191;50.908;6.962;2022-12-18T11:16:51;21.30;;;12.23;;
44486;SDS011;30191;50.908;6.962;2022-12-18T11:19:31;20.85;;;12.05;;
44486;SDS011;30191;50.908;6.962;2022-12-18T11:24:30;22.38;;;11.77;;
44486;SDS011;30191;50.908;6.962;2022-12-18T11:26:58;20.25;;;11.68;;
44486;SDS011;30191;50.908;6.962;2022-12-18T11:29:28;19.80;;;12.65;;
44486;SDS011;30191;50.908;6.962;2022-12-18T11:33:00;21.30;;;11.85;;
44486;SDS011;30191;50.908;6.962;2022-12-18T11:37:54;22.35;;;12.80;;
44486;SDS011;30191;50.908;6.962;2022-12-18T11:40:33;22.35;;;12.00;;
44486;SDS011;30191;50.908;6.962;2022-12-18T11:45:48;22.38;;;12.45;;
44486;SDS011;30191;50.908;6.962;2022-12-18T11:48:44;24.02;;;12.88;;
44486;SDS011;30191;50.908;6.962;2022-12-18T11:51:30;21.17;;;12.60;;
44486;SDS011;30191;50.908;6.962;2022-12-18T11:54:00;21.90;;;12.70;;
44486;SDS011;30191;50.908;6.962;2022-12-18T12:05:00;23.38;;;13.45;;
44486;SDS011;30191;50.908;6.962;2022-12-18T12:10:43;23.20;;;13.15;;
44486;SDS011;30191;50.908;6.962;2022-12-18T12:19:04;22.58;;;12.40;;
44486;SDS011;30191;50.908;6.962;2022-12-18T12:22:02;21.42;;;12.63;;
44486;SDS011;30191;50.908;6.962;2022-12-18T12:33:25;21.20;;;13.88;;
44486;SDS011;30191;50.908;6.962;2022-12-18T12:38:54;20.77;;;12.88;;
44486;SDS011;30191;50.908;6.962;2022-12-18T12:41:25;22.00;;;13.40;;
44486;SDS011;30191;50.908;6.962;2022-12-18T12:44:15;21.60;;;13.82;;
44486;SDS011;30191;50.908;6.962;2022-12-18T12:46:47;20.13;;;13.23;;
44486;SDS011;30191;50.908;6.962;2022-12-18T12:49:15;26.25;;;13.32;;
44486;SDS011;30191;50.908;6.962;2022-12-18T12:51:45;24.75;;;13.32;;
44486;SDS011;30191;50.908;6.962;2022-12-18T12:54:21;23.95;;;13.85;;
44486;SDS011;30191;50.908;6.962;2022-12-18T13:04:47;24.90;;;15.30;;
44486;SDS011;30191;50.908;6.962;2022-12-18T13:07:39;23.77;;;14.43;;
44486;SDS011;30191;50.908;6.962;2022-12-18T13:10:14;24.50;;;14.43;;
44486;SDS011;30191;50.908;6.962;2022-12-18T13:15:22;28.50;;;15.50;;
44486;SDS011;30191;50.908;6.962;2022-12-18T13:17:48;25.90;;;14.80;;
44486;SDS011;30191;50.908;6.962;2022-12-18T13:20:14;24.90;;;15.50;;
44486;SDS011;30191;50.908;6.962;2022-12-18T13:22:48;26.13;;;15.13;;
44486;SDS011;30191;50.908;6.962;2022-12-18T13:28:10;22.27;;;14.27;;
44486;SDS011;30191;50.908;6.962;2022-12-18T13:41:39;24.55;;;15.50;;
44486;SDS011;30191;50.908;6.962;2022-12-18T13:46:49;24.73;;;15.05;;
44486;SDS011;30191;50.908;6.962;2022-12-18T13:52:00;25.98;;;15.93;;
44486;SDS011;30191;50.908;6.962;2022-12-18T13:57:04;24.77;;;15.50;;
44486;SDS011;30191;50.908;6.962;2022-12-18T13:59:35;25.25;;;15.27;;
44486;SDS011;30191;50.908;6.962;2022-12-18T14:02:21;24.38;;;15.93;;
44486;SDS011;30191;50.908;6.962;2022-12-18T14:04:48;24.70;;;15.50;;
44486;SDS011;30191;50.908;6.962;2022-12-18T14:07:16;22.90;;;15.63;;
44486;SDS011;30191;50.908;6.962;2022-12-18T14:09:49;24.13;;;15.45;;
44486;SDS011;30191;50.908;6.962;2022-12-18T14:12:26;26.00;;;15.80;;
44486;SDS011;30191;50.908;6.962;2022-12-18T14:15:34;26.50;;;16.02;;
44486;SDS011;30191;50.908;6.962;2022-12-18T14:18:03;28.08;;;15.82;;
44486;SDS011;30191;50.908;6.962;2022-12-18T14:20:57;26.45;;;15.52;;
44486;SDS011;30191;50.908;6.962;2022-12-18T14:28:45;27.38;;;16.38;;
44486;SDS011;30191;50.908;6.962;2022-12-18T14:31:18;26.63;;;16.05;;
44486;SDS011;30191;50.908;6.962;2022-12-18T14:33:45;25.65;;;16.23;;
44486;SDS011;30191;50.908;6.962;2022-12-18T14:36:13;25.30;;;15.60;;
44486;SDS011;30191;50.908;6.962;2022-12-18T14:39:00;24.92;;;16.00;;
44486;SDS011;30191;50.908;6.962;2022-12-18T14:41:26;24.38;;;15.45;;
44486;SDS011;30191;50.908;6.962;2022-12-18T14:43:54;26.25;;;16.10;;
44486;SDS011;30191;50.908;6.962;2022-12-18T14:48:58;25.98;;;16.70;;
44486;SDS011;30191;50.908;6.962;2022-12-18T14:51:29;27.45;;;16.35;;
44486;SDS011;30191;50.908;6.962;2022-12-18T14:54:02;25.88;;;16.67;;
44486;SDS011;30191;50.908;6.962;2022-12-18T14:56:36;27.02;;;16.17;;
44486;SDS011;30191;50.908;6.962;2022-12-18T14:59:15;28.77;;;15.90;;
44486;SDS011;30191;50.908;6.962;2022-12-18T15:04:35;28.70;;;16.98;;
44486;SDS011;30191;50.908;6.962;2022-12-18T15:09:40;26.92;;;16.05;;
44486;SDS011;30191;50.908;6.962;2022-12-18T15:12:24;27.58;;;17.13;;
44486;SDS011;30191;50.908;6.962;2022-12-18T15:14:58;27.52;;;16.95;;
44486;SDS011;30191;50.908;6.962;2022-12-18T15:17:24;23.80;;;15.38;;
44486;SDS011;30191;50.908;6.962;2022-12-18T15:19:51;27.20;;;16.85;;
44486;SDS011;30191;50.908;6.962;2022-12-18T15:22:25;27.05;;;16.60;;
44486;SDS011;30191;50.908;6.962;2022-12-18T15:24:53;27.90;;;16.98;;
44486;SDS011;30191;50.908;6.962;2022-12-18T15:32:33;27.00;;;17.02;;
44486;SDS011;30191;50.908;6.962;2022-12-18T15:37:34;27.52;;;16.92;;
44486;SDS011;30191;50.908;6.962;2022-12-18T15:40:00;31.60;;;16.92;;
44486;SDS011;30191;50.908;6.962;2022-12-18T15:42:27;27.25;;;17.65;;
44486;SDS011;30191;50.908;6.962;2022-12-18T15:45:12;26.35;;;16.95;;
44486;SDS011;30191;50.908;6.962;2022-12-18T15:47:38;31.55;;;17.55;;
44486;SDS011;30191;50.908;6.962;2022-12-18T15:50:05;30.92;;;17.80;;
44486;SDS011;30191;50.908;6.962;2022-12-18T15:52:36;30.08;;;18.08;;
44486;SDS011;30191;50.908;6.962;2022-12-18T15:55:15;31.30;;;16.95;;
44486;SDS011;30191;50.908;6.962;2022-12-18T15:58:01;25.67;;;16.25;;
44486;SDS011;30191;50.908;6.962;2022-12-18T16:00:27;28.35;;;18.00;;
44486;SDS011;30191;50.908;6.962;2022-12-18T16:02:53;28.42;;;18.35;;
44486;SDS011;30191;50.908;6.962;2022-12-18T16:05:19;29.13;;;18.48;;
44486;SDS011;30191;50.908;6.962;2022-12-18T16:07:46;29.38;;;18.30;;
44486;SDS011;30191;50.908;6.962;2022-12-18T16:10:13;30.13;;;18.10;;
44486;SDS011;30191;50.908;6.962;2022-12-18T16:12:40;28.67;;;18.40;;
44486;SDS011;30191;50.908;6.962;2022-12-18T16:15:06;31.23;;;18.30;;
44486;SDS011;30191;50.908;6.962;2022-12-18T16:17:33;28.77;;;17.83;;
44486;SDS011;30191;50.908;6.962;2022-12-18T16:19:58;29.83;;;18.00;;
44486;SDS011;30191;50.908;6.962;2022-12-18T16:22:26;29.17;;;18.23;;
44486;SDS011;30191;50.908;6.962;2022-12-18T16:24:53;30.80;;;18.30;;
44486;SDS011;30191;50.908;6.962;2022-12-18T16:27:20;27.95;;;18.08;;
44486;SDS011;30191;50.908;6.962;2022-12-18T16:29:48;27.23;;;17.20;;
44486;SDS011;30191;50.908;6.962;2022-12-18T16:32:18;30.85;;;18.73;;
44486;SDS011;30191;50.908;6.962;2022-12-18T16:34:45;30.77;;;18.02;;
44486;SDS011;30191;50.908;6.962;2022-12-18T16:37:12;30.05;;;19.17;;
44486;SDS011;30191;50.908;6.962;2022-12-18T16:39:39;27.67;;;17.80;;
44486;SDS011;30191;50.908;6.962;2022-12-18T16:42:13;30.17;;;19.15;;
44486;SDS011;30191;50.908;6.962;2022-12-18T16:44:44;29.77;;;18.35;;
44486;SDS011;30191;50.908;6.962;2022-12-18T16:47:10;31.00;;;18.80;;
44486;SDS011;30191;50.908;6.962;2022-12-18T16:49:36;26.95;;;17.40;;
44486;SDS011;30191;50.908;6.962;2022-12-18T16:52:03;28.33;;;18.35;;
44486;SDS011;30191;50.908;6.962;2022-12-18T16:54:30;30.55;;;18.60;;
44486;SDS011;30191;50.908;6.962;2022-12-18T16:56:57;28.98;;;17.77;;